Terminal Aerodrome Forecast
Issued by NWS

Home | Current Version | Previous Version | Text Only | Print | Product List | Glossary On
Versions: 1 2 3 4 5 6 7 8 9 10 11 12 13 14
000
FTUS46 KSGX 012300
TAFONT
TAF
KONT 012328Z 0200/0306 25008KT P6SM SKC
     FM020300 VRB05KT P6SM SKC WS015/02020KT
     FM021300 03015G25KT P6SM SKC
     FM022100 04012KT P6SM SKC
     FM030400 VRB05KT P6SM SKC=

USA.gov is the U.S. government's official web portal to all federal, state and local government web resources and services.